createdAt,value
2022-10-22T00:01:41.382Z,3.30
2022-10-22T00:04:08.029Z,3.90
2022-10-22T00:06:34.821Z,3.50
2022-10-22T00:09:01.506Z,3.63
2022-10-22T00:11:34.337Z,3.80
2022-10-22T00:14:00.932Z,3.53
2022-10-22T00:16:27.450Z,3.50
2022-10-22T00:18:54.055Z,3.80
2022-10-22T00:21:20.634Z,3.37
2022-10-22T00:23:49.532Z,3.80
2022-10-22T00:26:16.146Z,3.77
2022-10-22T00:28:42.756Z,3.60
2022-10-22T00:31:09.574Z,3.67
2022-10-22T00:33:36.169Z,4.00
2022-10-22T00:36:02.795Z,3.73
2022-10-22T00:38:29.424Z,4.30
2022-10-22T00:40:56.168Z,3.80
2022-10-22T00:43:22.811Z,4.13
2022-10-22T00:45:49.394Z,4.33
2022-10-22T00:48:22.564Z,4.47
2022-10-22T00:51:03.450Z,3.90
2022-10-22T00:53:33.306Z,4.23
2022-10-22T00:56:00.099Z,3.80
2022-10-22T00:58:28.742Z,3.40
2022-10-22T01:00:56.375Z,3.77
2022-10-22T01:03:23.480Z,3.30
2022-10-22T01:05:59.036Z,3.90
2022-10-22T01:08:27.261Z,4.00
2022-10-22T01:11:17.107Z,3.50
2022-10-22T01:13:49.601Z,3.70
2022-10-22T01:16:26.700Z,4.10
2022-10-22T01:19:08.215Z,3.70
2022-10-22T01:21:46.489Z,3.97
2022-10-22T01:24:57.721Z,4.60
2022-10-22T01:27:39.032Z,4.40
2022-10-22T01:30:07.804Z,5.07
2022-10-22T01:32:50.131Z,3.90
2022-10-22T01:35:20.605Z,3.60
2022-10-22T01:37:50.616Z,4.40
2022-10-22T01:40:17.445Z,4.17
2022-10-22T01:43:00.649Z,4.10
2022-10-22T01:45:29.198Z,4.80
2022-10-22T01:48:08.639Z,4.50
2022-10-22T01:50:58.639Z,4.10
2022-10-22T01:53:31.375Z,4.33
2022-10-22T01:56:23.021Z,4.30
2022-10-22T01:59:34.663Z,4.00
2022-10-22T02:02:17.370Z,4.30
2022-10-22T02:04:52.214Z,4.13
2022-10-22T02:07:21.827Z,4.03
2022-10-22T02:09:49.584Z,3.80
2022-10-22T02:12:19.139Z,3.93
2022-10-22T02:14:47.069Z,5.27
2022-10-22T02:17:17.151Z,4.60
2022-10-22T02:19:50.431Z,4.73
2022-10-22T02:22:17.498Z,4.70
2022-10-22T02:24:46.295Z,4.10
2022-10-22T02:27:24.284Z,4.13
2022-10-22T02:30:10.150Z,4.03
2022-10-22T02:32:44.551Z,4.10
2022-10-22T02:35:15.209Z,3.60
2022-10-22T02:37:44.575Z,3.60
2022-10-22T02:40:11.712Z,3.90
2022-10-22T02:42:39.537Z,3.73
2022-10-22T02:45:06.621Z,3.40
2022-10-22T02:47:33.177Z,4.00
2022-10-22T02:49:59.715Z,3.10
2022-10-22T02:52:26.405Z,3.57
2022-10-22T02:54:52.998Z,3.40
2022-10-22T02:59:46.045Z,3.80
2022-10-22T03:02:13.045Z,3.57
2022-10-22T03:04:40.694Z,3.53
2022-10-22T03:07:07.439Z,3.03
2022-10-22T03:09:34.068Z,3.53
2022-10-22T03:12:00.681Z,3.30
2022-10-22T03:14:27.221Z,3.80
2022-10-22T03:16:53.775Z,3.47
2022-10-22T03:19:20.399Z,3.50
2022-10-22T03:21:56.690Z,3.40
2022-10-22T03:24:30.381Z,3.60
2022-10-22T03:26:57.745Z,4.37
2022-10-22T03:29:26.423Z,4.80
2022-10-22T03:31:53.816Z,5.17
2022-10-22T03:34:20.911Z,4.40
2022-10-22T03:36:48.598Z,5.00
2022-10-22T03:39:17.710Z,4.70
2022-10-22T03:41:44.428Z,5.50
2022-10-22T03:44:11.381Z,5.60
2022-10-22T03:46:37.993Z,5.57
2022-10-22T03:49:04.538Z,5.60
2022-10-22T03:51:31.258Z,4.70
2022-10-22T03:53:57.860Z,5.10
2022-10-22T03:56:24.509Z,4.47
2022-10-22T03:58:51.175Z,4.10
2022-10-22T04:01:17.834Z,4.43
2022-10-22T04:03:44.440Z,4.83
2022-10-22T04:06:13.235Z,3.90
2022-10-22T04:08:41.196Z,4.57
2022-10-22T04:11:08.059Z,4.07
2022-10-22T04:13:34.800Z,4.20
2022-10-22T04:16:21.804Z,4.17
2022-10-22T04:18:49.803Z,3.93
2022-10-22T04:21:18.280Z,3.50
2022-10-22T04:23:50.310Z,3.83
2022-10-22T04:26:17.889Z,3.97
2022-10-22T04:28:48.111Z,3.57
2022-10-22T04:31:17.254Z,3.43
2022-10-22T04:33:44.204Z,4.03
2022-10-22T04:36:17.250Z,3.90
2022-10-22T04:38:45.699Z,3.87
2022-10-22T04:41:17.921Z,4.20
2022-10-22T04:43:45.410Z,4.33
2022-10-22T04:46:13.261Z,4.13
2022-10-22T04:48:41.025Z,4.53
2022-10-22T04:51:09.047Z,4.30
2022-10-22T04:53:35.757Z,4.20
2022-10-22T04:56:16.389Z,4.03
2022-10-22T04:58:44.024Z,4.53
2022-10-22T05:01:18.691Z,4.63
2022-10-22T05:03:46.022Z,4.30
2022-10-22T05:08:40.264Z,4.40
2022-10-22T05:11:24.769Z,4.37
2022-10-22T05:13:51.851Z,4.50
2022-10-22T05:16:18.443Z,4.83
2022-10-22T05:18:45.316Z,4.33
2022-10-22T05:21:14.747Z,4.80
2022-10-22T05:23:42.178Z,4.80
2022-10-22T05:26:10.002Z,4.70
2022-10-22T05:28:36.879Z,4.80
2022-10-22T05:31:04.535Z,4.47
2022-10-22T05:33:32.904Z,4.80
2022-10-22T05:36:00.485Z,4.27
2022-10-22T05:38:27.182Z,4.10
2022-10-22T05:41:11.793Z,4.93
2022-10-22T05:43:38.663Z,4.43
2022-10-22T05:46:10.758Z,4.17
2022-10-22T05:48:38.085Z,4.63
2022-10-22T05:51:10.473Z,4.67
2022-10-22T05:53:39.256Z,4.73
2022-10-22T05:56:08.340Z,4.20
2022-10-22T05:58:35.437Z,4.20
2022-10-22T06:01:05.890Z,4.50
2022-10-22T06:03:33.674Z,3.77
2022-10-22T06:06:02.106Z,4.10
2022-10-22T06:08:29.434Z,4.90
2022-10-22T06:10:56.124Z,5.27
2022-10-22T06:13:22.944Z,4.70
2022-10-22T06:15:50.467Z,5.20
2022-10-22T06:18:17.052Z,4.30
2022-10-22T06:20:45.393Z,4.77
2022-10-22T06:23:12.032Z,5.20
2022-10-22T06:25:38.597Z,4.90
2022-10-22T06:28:05.189Z,5.10
2022-10-22T06:30:31.826Z,5.07
2022-10-22T06:32:58.430Z,4.63
2022-10-22T06:35:25.027Z,5.10
2022-10-22T06:37:51.580Z,5.47
2022-10-22T06:40:18.763Z,4.37
2022-10-22T06:42:45.339Z,5.47
2022-10-22T06:45:11.923Z,5.00
2022-10-22T06:47:38.883Z,4.73
2022-10-22T06:50:06.127Z,4.50
2022-10-22T06:52:32.731Z,4.90
2022-10-22T06:54:59.322Z,4.27
2022-10-22T06:57:25.863Z,3.93
2022-10-22T06:59:52.383Z,4.10
2022-10-22T07:02:18.938Z,4.10
2022-10-22T07:04:45.563Z,4.17
2022-10-22T07:07:12.311Z,3.80
2022-10-22T07:09:43.835Z,3.70
2022-10-22T07:12:10.443Z,4.23
2022-10-22T07:14:36.947Z,3.03
2022-10-22T07:17:03.604Z,3.53
2022-10-22T07:19:30.220Z,3.60
2022-10-22T07:22:00.011Z,3.47
2022-10-22T07:24:26.668Z,3.80
2022-10-22T07:26:53.575Z,4.00
2022-10-22T07:29:20.149Z,3.53
2022-10-22T07:31:46.710Z,3.60
2022-10-22T07:34:13.824Z,3.90
2022-10-22T07:36:40.388Z,3.30
2022-10-22T07:39:07.033Z,3.80
2022-10-22T07:41:33.627Z,4.23
2022-10-22T07:44:00.217Z,4.20
2022-10-22T07:46:27.401Z,3.60
2022-10-22T07:48:54.232Z,4.03
2022-10-22T07:51:22.303Z,4.07
2022-10-22T07:53:51.303Z,3.93
2022-10-22T07:56:17.988Z,3.80
2022-10-22T07:58:44.557Z,4.10
2022-10-22T08:01:11.340Z,4.07
2022-10-22T08:03:37.997Z,4.30
2022-10-22T08:06:04.777Z,3.70
2022-10-22T08:08:31.673Z,4.10
2022-10-22T08:11:00.263Z,3.63
2022-10-22T08:13:27.628Z,3.87
2022-10-22T08:15:57.322Z,3.87
2022-10-22T08:18:24.713Z,3.87
2022-10-22T08:20:51.613Z,4.10
2022-10-22T08:23:18.278Z,4.60
2022-10-22T08:25:44.836Z,4.23
2022-10-22T08:28:11.489Z,4.13
2022-10-22T08:30:38.677Z,4.43
2022-10-22T08:33:05.859Z,4.50
2022-10-22T08:35:32.462Z,4.60
2022-10-22T08:37:59.076Z,4.70
2022-10-22T08:40:35.303Z,4.40
2022-10-22T08:43:11.983Z,4.83
2022-10-22T08:45:41.447Z,4.77
2022-10-22T08:48:37.370Z,4.60
2022-10-22T08:51:04.039Z,4.60
2022-10-22T08:54:15.596Z,4.20
2022-10-22T08:57:08.829Z,5.10
2022-10-22T08:59:53.695Z,5.13
2022-10-22T09:02:43.465Z,4.80
2022-10-22T09:05:19.881Z,5.00
2022-10-22T09:07:50.210Z,4.80
2022-10-22T09:10:18.745Z,4.50
2022-10-22T09:12:45.748Z,4.77
2022-10-22T09:15:14.484Z,4.60
2022-10-22T09:17:58.961Z,4.57
2022-10-22T09:20:38.225Z,5.20
2022-10-22T09:23:11.255Z,4.60
2022-10-22T09:25:38.618Z,4.87
2022-10-22T09:28:09.493Z,4.73
2022-10-22T09:30:38.050Z,4.40
2022-10-22T09:33:13.532Z,4.70
2022-10-22T09:35:56.344Z,4.93
2022-10-22T09:38:31.275Z,4.50
2022-10-22T09:40:59.652Z,4.47
2022-10-22T09:43:28.763Z,4.80
2022-10-22T09:45:58.009Z,4.93
2022-10-22T09:48:39.586Z,4.27
2022-10-22T09:51:07.766Z,4.10
2022-10-22T09:53:43.693Z,4.50
2022-10-22T09:56:19.018Z,4.10
2022-10-22T09:58:49.306Z,3.90
2022-10-22T10:01:18.336Z,3.70
2022-10-22T10:03:44.894Z,3.77
2022-10-22T10:06:12.616Z,3.97
2022-10-22T10:08:39.357Z,4.07
2022-10-22T10:11:28.813Z,4.00
2022-10-22T10:14:29.862Z,4.60
2022-10-22T10:17:16.083Z,4.47
2022-10-22T10:20:00.031Z,4.23
2022-10-22T10:22:51.515Z,4.20
2022-10-22T10:25:32.900Z,4.50
2022-10-22T10:28:09.698Z,4.13
2022-10-22T10:30:45.350Z,3.80
2022-10-22T10:33:49.853Z,4.03
2022-10-22T10:36:34.087Z,5.00
2022-10-22T10:39:09.092Z,4.40
2022-10-22T10:41:49.947Z,4.40
2022-10-22T10:45:03.538Z,4.33
2022-10-22T10:47:39.218Z,4.47
2022-10-22T10:50:38.526Z,4.53
2022-10-22T10:53:22.575Z,4.13
2022-10-22T10:56:02.717Z,4.60
2022-10-22T10:58:56.549Z,4.53
2022-10-22T11:01:41.267Z,4.50
2022-10-22T11:04:29.386Z,4.20
2022-10-22T11:07:10.738Z,3.70
2022-10-22T11:09:45.377Z,4.50
2022-10-22T11:12:23.595Z,4.47
2022-10-22T11:15:03.563Z,3.93
2022-10-22T11:17:37.176Z,3.60
2022-10-22T11:20:18.610Z,3.70
2022-10-22T11:23:16.757Z,3.50
2022-10-22T11:25:46.366Z,3.40
2022-10-22T11:28:28.336Z,3.50
2022-10-22T11:31:16.196Z,4.00
2022-10-22T11:34:00.447Z,3.90
2022-10-22T11:39:04.889Z,3.90
2022-10-22T11:41:33.481Z,4.10
2022-10-22T11:44:22.640Z,4.10
2022-10-22T11:46:59.239Z,3.70
2022-10-22T11:49:28.519Z,3.40
2022-10-22T11:52:23.084Z,3.97
2022-10-22T11:54:55.375Z,3.30
2022-10-22T11:57:26.678Z,4.03
2022-10-22T11:59:57.480Z,3.60
2022-10-22T12:02:45.927Z,4.20
2022-10-22T12:05:24.930Z,4.07
2022-10-22T12:08:06.483Z,3.73
2022-10-22T12:11:11.760Z,3.90
2022-10-22T12:14:15.689Z,3.20
2022-10-22T12:16:57.854Z,3.67
2022-10-22T12:19:55.499Z,3.30
2022-10-22T12:22:28.919Z,3.33
2022-10-22T12:25:00.891Z,3.30
2022-10-22T12:27:36.725Z,2.93
2022-10-22T12:30:22.320Z,3.17
2022-10-22T12:32:52.690Z,2.97
2022-10-22T12:35:21.985Z,2.90
2022-10-22T12:37:56.527Z,3.53
2022-10-22T12:40:30.124Z,2.80
2022-10-22T12:43:01.894Z,2.83
2022-10-22T12:45:31.114Z,3.33
2022-10-22T12:48:01.346Z,3.37
2022-10-22T12:50:33.734Z,2.80
2022-10-22T12:53:00.379Z,2.90
2022-10-22T12:55:30.654Z,3.10
2022-10-22T12:57:57.389Z,3.33
2022-10-22T13:00:27.148Z,3.20
2022-10-22T13:02:54.077Z,3.10
2022-10-22T13:05:24.955Z,3.30
2022-10-22T13:08:12.951Z,3.40
2022-10-22T13:10:41.685Z,3.40
2022-10-22T13:13:48.555Z,3.20
2022-10-22T13:16:27.943Z,2.80
2022-10-22T13:18:54.645Z,3.67
2022-10-22T13:21:34.424Z,3.43
2022-10-22T13:24:22.331Z,3.50
2022-10-22T13:26:52.680Z,3.60
2022-10-22T13:29:20.835Z,3.27
2022-10-22T13:31:52.160Z,3.70
2022-10-22T13:34:25.455Z,3.40
2022-10-22T13:36:54.516Z,3.80
2022-10-22T13:39:23.388Z,3.27
2022-10-22T13:41:50.891Z,3.50
2022-10-22T13:44:20.560Z,3.50
2022-10-22T13:46:47.932Z,3.30
2022-10-22T13:49:16.792Z,3.00
2022-10-22T13:51:44.195Z,3.20
2022-10-22T13:54:14.925Z,3.10
2022-10-22T13:56:41.603Z,3.33
2022-10-22T13:59:09.631Z,2.70
2022-10-22T14:01:36.984Z,2.80
2022-10-22T14:04:05.112Z,2.97
2022-10-22T14:06:34.156Z,2.90
2022-10-22T14:09:03.973Z,2.70
2022-10-22T14:11:35.160Z,2.23
2022-10-22T14:14:08.827Z,2.90
2022-10-22T14:16:37.048Z,2.63
2022-10-22T14:19:04.041Z,2.37
2022-10-22T14:21:37.811Z,2.37
2022-10-22T14:24:07.098Z,2.07
2022-10-22T14:26:36.070Z,2.70
2022-10-22T14:29:11.405Z,2.43
2022-10-22T14:34:12.389Z,2.50
2022-10-22T14:36:39.048Z,2.60
2022-10-22T14:39:05.654Z,2.73
2022-10-22T14:41:32.303Z,2.57
2022-10-22T14:43:59.873Z,2.70
2022-10-22T14:46:26.613Z,2.80
2022-10-22T14:48:55.624Z,2.90
2022-10-22T14:51:23.038Z,2.77
2022-10-22T14:53:49.715Z,2.97
2022-10-22T14:56:18.780Z,3.60
2022-10-22T14:58:45.841Z,3.00
2022-10-22T15:01:13.149Z,3.50
2022-10-22T15:03:39.888Z,3.60
2022-10-22T15:06:06.944Z,2.93
2022-10-22T15:08:33.760Z,3.77
2022-10-22T15:11:09.758Z,3.40
2022-10-22T15:13:36.440Z,3.63
2022-10-22T15:16:06.793Z,3.93
2022-10-22T15:18:33.477Z,3.80
2022-10-22T15:21:12.922Z,4.73
2022-10-22T15:23:40.646Z,4.10
2022-10-22T15:26:08.675Z,4.80
2022-10-22T15:28:37.603Z,4.00
2022-10-22T15:31:04.655Z,4.33
2022-10-22T15:33:31.355Z,4.70
2022-10-22T15:35:58.141Z,4.00
2022-10-22T15:41:07.698Z,4.50
2022-10-22T15:43:37.156Z,3.90
2022-10-22T15:46:11.280Z,4.30
2022-10-22T15:48:38.224Z,5.10
2022-10-22T15:51:16.520Z,4.67
2022-10-22T15:53:43.357Z,5.83
2022-10-22T15:56:11.637Z,8.23
2022-10-22T15:58:38.227Z,7.73
2022-10-22T16:01:09.858Z,5.47
2022-10-22T16:03:37.099Z,5.00
2022-10-22T16:06:04.998Z,5.73
2022-10-22T16:08:31.838Z,5.10
2022-10-22T16:10:58.663Z,5.00
2022-10-22T16:13:26.327Z,4.43
2022-10-22T16:15:54.604Z,4.53
2022-10-22T16:18:21.637Z,5.60
2022-10-22T16:20:48.311Z,5.60
2022-10-22T16:23:18.823Z,5.80
2022-10-22T16:25:46.368Z,5.07
2022-10-22T16:28:13.271Z,5.03
2022-10-22T16:30:40.327Z,4.23
2022-10-22T16:33:07.957Z,5.60
2022-10-22T16:35:34.692Z,5.30
2022-10-22T16:38:01.396Z,4.97
2022-10-22T16:40:29.175Z,4.90
2022-10-22T16:42:55.861Z,4.47
2022-10-22T16:45:22.526Z,4.40
2022-10-22T16:47:51.702Z,5.03
2022-10-22T16:50:18.466Z,5.37
2022-10-22T16:52:45.102Z,5.20
2022-10-22T16:55:11.778Z,4.70
2022-10-22T16:57:38.631Z,4.87
2022-10-22T17:00:08.245Z,4.50
2022-10-22T17:02:37.254Z,5.00
2022-10-22T17:05:04.041Z,4.53
2022-10-22T17:07:30.644Z,5.40
2022-10-22T17:09:57.195Z,5.03
2022-10-22T17:12:26.167Z,4.83
2022-10-22T17:14:52.697Z,5.00
2022-10-22T17:17:19.348Z,5.03
2022-10-22T17:19:45.967Z,5.30
2022-10-22T17:22:14.886Z,4.77
2022-10-22T17:24:44.304Z,4.10
2022-10-22T17:27:10.979Z,4.63
2022-10-22T17:29:37.695Z,4.43
2022-10-22T17:32:04.455Z,5.47
2022-10-22T17:34:33.198Z,5.00
2022-10-22T17:37:02.668Z,4.60
2022-10-22T17:39:29.186Z,5.30
2022-10-22T17:41:55.798Z,5.10
2022-10-22T17:44:22.438Z,5.10
2022-10-22T17:46:49.650Z,5.70
2022-10-22T17:49:18.725Z,4.50
2022-10-22T17:51:46.172Z,4.27
2022-10-22T17:54:13.630Z,4.07
2022-10-22T17:56:40.290Z,5.10
2022-10-22T17:59:08.331Z,4.30
2022-10-22T18:01:38.725Z,4.73
2022-10-22T18:04:08.083Z,4.53
2022-10-22T18:06:35.266Z,4.27
2022-10-22T18:09:07.890Z,5.20
2022-10-22T18:11:36.518Z,4.30
2022-10-22T18:14:03.537Z,4.60
2022-10-22T18:16:30.213Z,4.37
2022-10-22T18:18:57.429Z,4.27
2022-10-22T18:21:26.156Z,5.03
2022-10-22T18:23:52.788Z,4.40
2022-10-22T18:26:22.787Z,4.80
2022-10-22T18:28:52.560Z,4.80
2022-10-22T18:31:21.387Z,4.60
2022-10-22T18:33:48.465Z,4.53
2022-10-22T18:36:20.876Z,5.13
2022-10-22T18:38:55.949Z,4.80
2022-10-22T18:41:23.194Z,5.40
2022-10-22T18:43:51.367Z,4.50
2022-10-22T18:46:18.802Z,4.30
2022-10-22T18:48:47.698Z,4.70
2022-10-22T18:51:14.687Z,4.80
2022-10-22T18:53:44.176Z,4.50
2022-10-22T18:56:13.242Z,4.20
2022-10-22T18:58:41.941Z,4.20
2022-10-22T19:01:12.652Z,5.20
2022-10-22T19:03:39.428Z,4.80
2022-10-22T19:06:06.450Z,4.30
2022-10-22T19:08:34.956Z,4.40
2022-10-22T19:11:01.969Z,4.30
2022-10-22T19:13:28.686Z,4.60
2022-10-22T19:16:01.934Z,4.30
2022-10-22T19:18:28.573Z,4.73
2022-10-22T19:20:59.285Z,3.97
2022-10-22T19:23:26.659Z,4.17
2022-10-22T19:26:21.400Z,4.00
2022-10-22T19:28:47.994Z,3.80
2022-10-22T19:31:18.703Z,4.30
2022-10-22T19:33:45.283Z,4.30
2022-10-22T19:36:13.407Z,4.10
2022-10-22T19:38:44.925Z,3.90
2022-10-22T19:41:16.201Z,3.70
2022-10-22T19:43:43.589Z,4.10
2022-10-22T19:46:12.908Z,4.10
2022-10-22T19:48:39.755Z,3.80
2022-10-22T19:51:09.316Z,4.40
2022-10-22T19:53:37.952Z,4.23
2022-10-22T19:56:06.610Z,3.67
2022-10-22T19:58:33.341Z,4.03
2022-10-22T20:01:11.601Z,4.13
2022-10-22T20:03:39.187Z,4.10
2022-10-22T20:06:07.470Z,4.57
2022-10-22T20:08:37.807Z,5.07
2022-10-22T20:11:06.867Z,4.70
2022-10-22T20:13:35.015Z,4.90
2022-10-22T20:16:01.667Z,4.13
2022-10-22T20:18:28.435Z,4.47
2022-10-22T20:20:55.093Z,4.90
2022-10-22T20:23:21.760Z,4.30
2022-10-22T20:25:48.338Z,4.20
2022-10-22T20:28:15.359Z,5.50
2022-10-22T20:30:45.719Z,5.97
2022-10-22T20:33:15.081Z,4.97
2022-10-22T20:35:42.217Z,5.00
2022-10-22T20:38:13.322Z,4.57
2022-10-22T20:40:40.271Z,4.57
2022-10-22T20:43:12.377Z,4.67
2022-10-22T20:45:42.102Z,4.83
2022-10-22T20:48:09.032Z,4.00
2022-10-22T20:50:38.682Z,4.63
2022-10-22T20:53:13.356Z,4.17
2022-10-22T20:55:41.303Z,5.53
2022-10-22T20:58:10.475Z,4.20
2022-10-22T21:00:39.259Z,4.00
2022-10-22T21:03:09.012Z,4.97
2022-10-22T21:05:35.957Z,4.43
2022-10-22T21:08:15.675Z,4.77
2022-10-22T21:10:42.306Z,3.87
2022-10-22T21:13:11.250Z,4.30
2022-10-22T21:15:47.113Z,4.47
2022-10-22T21:18:13.734Z,4.20
2022-10-22T21:20:40.823Z,4.50
2022-10-22T21:23:07.772Z,3.93
2022-10-22T21:25:38.472Z,4.13
2022-10-22T21:28:08.594Z,4.10
2022-10-22T21:30:35.187Z,3.90
2022-10-22T21:33:01.746Z,3.77
2022-10-22T21:35:28.485Z,4.17
2022-10-22T21:37:55.053Z,4.10
2022-10-22T21:40:21.918Z,4.30
2022-10-22T21:42:49.868Z,3.80
2022-10-22T21:45:19.872Z,4.20
2022-10-22T21:47:48.370Z,4.60
2022-10-22T21:50:15.271Z,4.53
2022-10-22T21:52:42.001Z,4.10
2022-10-22T21:55:09.160Z,4.43
2022-10-22T21:57:35.871Z,4.20
2022-10-22T22:00:02.448Z,4.30
2022-10-22T22:02:31.814Z,4.33
2022-10-22T22:04:58.359Z,4.60
2022-10-22T22:07:24.971Z,3.83
2022-10-22T22:09:51.742Z,4.33
2022-10-22T22:12:20.495Z,4.47
2022-10-22T22:14:47.308Z,4.40
2022-10-22T22:17:15.405Z,4.00
2022-10-22T22:19:42.548Z,3.93
2022-10-22T22:22:09.231Z,4.20
2022-10-22T22:24:35.805Z,4.17
2022-10-22T22:27:02.444Z,4.50
2022-10-22T22:29:29.052Z,4.90
2022-10-22T22:31:56.076Z,5.10
2022-10-22T22:34:22.742Z,3.53
2022-10-22T22:36:49.791Z,3.90
2022-10-22T22:39:19.277Z,3.70
2022-10-22T22:41:46.196Z,3.90
2022-10-22T22:44:13.419Z,4.20
2022-10-22T22:46:40.448Z,3.50
2022-10-22T22:49:07.196Z,3.50
2022-10-22T22:51:34.097Z,3.57
2022-10-22T22:54:01.106Z,3.60
2022-10-22T22:56:30.605Z,3.43
2022-10-22T22:58:57.681Z,3.70
2022-10-22T23:01:25.625Z,3.50
2022-10-22T23:04:00.500Z,3.30
2022-10-22T23:06:29.357Z,3.87
2022-10-22T23:08:56.582Z,3.60
2022-10-22T23:11:24.626Z,3.30
2022-10-22T23:13:55.276Z,3.00
2022-10-22T23:16:23.445Z,3.90
2022-10-22T23:18:50.565Z,3.70
2022-10-22T23:21:20.459Z,3.63
2022-10-22T23:23:50.100Z,3.60
2022-10-22T23:26:19.784Z,3.30
2022-10-22T23:28:46.619Z,3.80
2022-10-22T23:31:15.170Z,3.47
2022-10-22T23:33:42.648Z,3.40
2022-10-22T23:36:09.591Z,3.40
2022-10-22T23:38:37.365Z,3.00
2022-10-22T23:41:04.279Z,3.60
2022-10-22T23:43:31.299Z,3.07
2022-10-22T23:45:58.186Z,2.97
2022-10-22T23:48:24.734Z,3.00
2022-10-22T23:53:17.790Z,4.13
2022-10-22T23:55:44.705Z,3.23
2022-10-22T23:58:11.805Z,3.80
